AirNav   Air Wisconsin Up To $57,000 Bonus
 
 498 users online  

36CL Tri-City Hospital Heliport
Oceanside, California, USA

GOING TO OCEANSIDE?


FAA INFORMATION EFFECTIVE 22 APRIL 2021

Location

FAA Identifier: 36CL
Lat/Long: 33-11-06.9600N 117-17-28.3300W
33-11.116000N 117-17.472167W
33.1852667,-117.2912028
(estimated)
Elevation: 260 ft. / 79 m (estimated)
Variation: 13E (1985)
From city: 4 miles W of OCEANSIDE, CA
Time zone: UTC -7 (UTC -8 during Standard Time)
Zip code: 92056

Heliport Operations

Heliport use: Private use, MEDICAL.
Activation date: 04/1973
Control tower: no
ARTCC: LOS ANGELES CENTER
FSS: SAN DIEGO FLIGHT SERVICE STATION
Attendance: UNATNDD
Wind indicator: yes
Segmented circle: no

Heliport Communications

WX ASOS at CRQ (3 nm S): PHONE 760-930-0864
WX ASOS at OKB (4 nm NW): 127.8 (760-439-9683)
WX AWOS-3P at L18 (10 nm N): 118.425 (760-723-6073)

Nearby radio navigation aids

VOR radial/distance  VOR name  Freq  Var
OCNr103/7.2OCEANSIDE VORTAC115.3015E
MZBr337/24.4MISSION BAY VORTAC117.8015E
JLIr259/35.5JULIAN VORTAC114.0015E
HDFr174/(35.9)HOMELAND VOR113.4014E
ELBr129/36.8EL TORO VOR/DME117.2014E
PGYr321/37.9POGGI VORTAC116.4514E

Heliport Services

Airframe service: NONE
Powerplant service: NONE

Runway Information

Helipad H1

Dimensions: 58 x 68 ft. / 18 x 21 m
Surface: mats
Operational restrictions: ROOFTOP.
Latitude: 33-11.116000N
Longitude: 117-17.472167W
Elevation: 260.0 ft.
Traffic pattern: leftleft

Heliport Ownership and Management from official FAA records

Ownership: Privately-owned
Owner: TRI CITY HOSPITAL
4002 VISTA WAY
OCEANSIDE, CA 92056
Phone (760) 940-7709
OWNER CONTACT: STEVE BERNER
Manager: STEVE BERNER
4002 VISTA WAY, 4002 VISTA WAY
OCEANSIDE, CA 92056-4506
Phone (760) 940-7120
CELL: 760-802-2681

Additional Remarks

FOR CD CTC LOS ANGELES ARTCC AT 661-575-2079.

Instrument Procedures

There are no published instrument procedures at 36CL.

Some nearby airports with instrument procedures:

KCRQ - Mc Clellan-Palomar Airport (3 nm S)
KOKB - Bob Maxwell Memorial Airfield (4 nm NW)
KNFG - Camp Pendleton MCAS (Munn Field) Airport (8 nm NW)
L18 - Fallbrook Community Airpark (10 nm N)
KNKX - Miramar MCAS (Joe Foss Field) Airport (20 nm S)
 
Loc | Ops | Rwys | IFR | FBO | Links
Com | Nav | Svcs | Stats | Notes
Area around 36CL (Tri-City Hospital Heliport)
 
Road maps at: MapQuest Bing Google
 
Aerial photo
No photo
 
Sectional chart

 
Airport distance calculator
Flying to Tri-City Hospital Heliport? Find the distance to fly.

From to 36CL

Sunrise and sunset
Times for 10-May-2021
 Local
(UTC-7)
 Zulu
(UTC)
Morning civil twilight05:2712:27
Sunrise05:5412:54
Sunset19:3702:37
Evening civil twilight20:0403:04

Current date and time
Zulu (UTC)  11-May-2021 06:10:03
Local (UTC-7)  10-May-2021 23:10:03
 
METAR
KCRQ 
3nm S 
110553Z AUTO 15004KT 10SM FEW016 15/10 A2992 RMK AO2 SLP129 T01500100 10172 20150 50002
KOKB 
4nm NW 
110552Z AUTO 00000KT 10SM SCT020 13/10 A2992 RMK AO2 SLP132 T01280100 10194 20128 50006
KNFG 
6nm N 
110555Z AUTO 10SM CLR 13/09 A2993 RMK AO2 SLP134 T01330094 10200 20133 50007
KNXF 
10nm NW 
110556Z AUTO 04005KT 10SM CLR A2993 RMK AO2 SLPNO 51003 $
KL18 
10nm N 
110555Z AUTO 00000KT 10SM CLR 13/11 A2994 RMK AO2
TAF
KCRQ 
3nm S 
110520Z 1106/1206 VRB03KT P6SM OVC016 FM111900 24008KT P6SM SCT020 FM120200 VRB04KT P6SM BKN014
KNFG 
6nm N 
1103/1203 VRB05KT 9999 OVC012 QNH2992INS TEMPO 1103/1107 SCT015 BECMG 1118/1120 22010KT 9999 FEW020 QNH2989INS T13/1113Z T20/1121Z
NOTAMs
Click for the latest NOTAMs
NOTAMs are issued by the DoD/FAA and will open in a separate window not controlled by AirNav.

 

 
 

Would you like to see your business listed on this page?

 If your business provides an interesting product or service to pilots, flight crews, aircraft, or users of the Tri-City Hospital Heliport, you should consider listing it here.  To start the listing process, click on the button below
 
Add a business
 

Other Pages about Tri-City Hospital Heliport

Update a link
 
Copyright © AirNav, LLC. All rights reserved. Privacy Policy  Contact